Time;durP1;ratioP1;P1;durP2;ratioP2;P2;SDS_P1;SDS_P2;PMS_P1;PMS_P2;Temp;Humidity;BMP_temperature;BMP_pressure;BME280_temperature;BME280_humidity;BME280_pressure;Samples;Min_cycle;Max_cycle;Signal;HPM_P1;HPM_P2
2022/04/05 00:00:55;;;;;;;28.10;18.08;;;2.80;99.90;;;;;;5028882;28;20500;-85
2022/04/05 00:03:21;;;;;;;27.98;18.30;;;2.80;99.90;;;;;;4995999;28;20041;-84
2022/04/05 00:05:46;;;;;;;33.05;18.30;;;2.80;99.90;;;;;;4996195;28;20034;-85
2022/04/05 00:08:12;;;;;;;26.90;17.95;;;2.70;99.90;;;;;;4995368;28;20080;-85
2022/04/05 00:10:38;;;;;;;34.78;19.40;;;2.60;99.90;;;;;;4995630;28;20030;-85
2022/04/05 00:13:07;;;;;;;31.40;19.35;;;2.50;99.90;;;;;;5013139;28;20112;-85
2022/04/05 00:15:34;;;;;;;34.72;19.58;;;2.40;99.90;;;;;;5028021;28;20038;-85
2022/04/05 00:18:00;;;;;;;34.30;19.83;;;2.40;99.90;;;;;;5012296;28;20037;-85
2022/04/05 00:20:27;;;;;;;33.58;21.40;;;2.30;99.90;;;;;;4995439;28;20385;-85
2022/04/05 00:22:58;;;;;;;36.78;21.45;;;2.30;99.90;;;;;;4995405;28;20033;-85
2022/04/05 00:25:24;;;;;;;37.28;20.52;;;2.30;99.90;;;;;;5011859;28;20048;-85
2022/04/05 00:27:50;;;;;;;39.42;21.35;;;2.30;99.90;;;;;;4995534;28;20064;-85
2022/04/05 00:30:16;;;;;;;33.92;21.90;;;2.30;99.90;;;;;;4995139;28;20025;-85
2022/04/05 00:32:42;;;;;;;39.88;22.38;;;2.30;99.90;;;;;;4994660;28;20076;-85
2022/04/05 00:35:09;;;;;;;43.95;22.88;;;2.20;99.90;;;;;;4995076;28;20101;-85
2022/04/05 00:37:35;;;;;;;35.97;22.67;;;2.20;99.90;;;;;;4994520;28;20179;-85
2022/04/05 00:40:04;;;;;;;35.40;22.02;;;2.20;99.90;;;;;;4995027;28;20164;-85
2022/04/05 00:42:30;;;;;;;128.75;49.25;;;2.20;99.90;;;;;;4995349;28;20033;-85
2022/04/05 00:44:56;;;;;;;36.13;22.60;;;2.20;99.90;;;;;;4995283;28;20549;-85
2022/04/05 00:47:23;;;;;;;42.05;22.88;;;2.10;99.90;;;;;;4994797;28;20080;-85
2022/04/05 00:49:51;;;;;;;39.92;22.88;;;2.10;99.90;;;;;;5011899;28;20034;-85
2022/04/05 00:52:19;;;;;;;38.33;22.92;;;2.10;99.90;;;;;;5011667;28;20084;-86
2022/04/05 00:54:46;;;;;;;42.88;24.65;;;2.00;99.90;;;;;;4995438;28;20026;-86
2022/04/05 00:57:18;;;;;;;44.38;23.38;;;2.00;99.90;;;;;;5016241;28;20025;-86
2022/04/05 00:59:45;;;;;;;;;;;1.90;99.90;;;;;;5032448;28;20030;-85
2022/04/05 01:02:16;;;;;;;46.33;23.27;;;1.90;99.90;;;;;;4999021;28;19921;-85
2022/04/05 01:04:43;;;;;;;41.47;23.05;;;1.90;99.90;;;;;;5015523;28;20029;-85
2022/04/05 01:07:14;;;;;;;46.42;25.33;;;1.90;99.90;;;;;;4998948;28;20029;-85
2022/04/05 01:09:40;;;;;;;40.33;24.27;;;1.90;99.90;;;;;;4999510;28;20054;-85
2022/04/05 01:12:08;;;;;;;42.70;24.15;;;1.90;99.90;;;;;;5031859;28;20308;-86
2022/04/05 01:14:34;;;;;;;40.13;25.13;;;1.90;99.90;;;;;;4999057;28;20038;-85
2022/04/05 01:17:00;;;;;;;43.78;24.73;;;1.90;99.90;;;;;;4998701;28;20080;-85
2022/04/05 01:19:27;;;;;;;42.83;25.63;;;1.90;99.90;;;;;;4998807;28;20091;-85
2022/04/05 01:21:53;;;;;;;39.38;24.15;;;1.90;99.90;;;;;;5030966;28;20030;-86
2022/04/05 01:24:18;;;;;;;45.50;25.48;;;1.90;99.90;;;;;;5031426;28;20040;-85
2022/04/05 01:26:47;;;;;;;48.72;26.15;;;1.90;99.90;;;;;;4998429;28;20124;-85
2022/04/05 01:29:14;;;;;;;45.08;25.67;;;1.90;99.90;;;;;;5015127;28;20026;-85
2022/04/05 01:31:58;;;;;;;49.90;27.67;;;1.90;99.90;;;;;;4998671;28;20180;-85
2022/04/05 01:34:26;;;;;;;44.40;25.33;;;1.90;99.90;;;;;;4998717;28;20029;-85
2022/04/05 01:36:54;;;;;;;56.15;27.20;;;1.80;99.90;;;;;;5014756;28;20037;-85
2022/04/05 01:39:22;;;;;;;49.00;26.92;;;1.80;99.90;;;;;;4997897;28;20045;-85
2022/04/05 01:41:53;;;;;;;54.33;28.10;;;1.70;99.90;;;;;;5031302;28;20041;-85
2022/04/05 01:44:19;;;;;;;49.72;26.92;;;1.70;99.90;;;;;;4998386;28;20049;-86
2022/04/05 01:46:45;;;;;;;57.20;28.98;;;1.70;99.90;;;;;;4998333;28;20445;-86
2022/04/05 01:49:13;;;;;;;58.40;30.80;;;1.70;99.90;;;;;;4998398;28;20034;-86
2022/04/05 01:51:39;;;;;;;55.13;30.25;;;1.70;99.90;;;;;;4998474;28;20129;-86
2022/04/05 01:54:11;;;;;;;56.45;30.10;;;1.70;99.90;;;;;;4981768;28;20030;-86
2022/04/05 01:56:51;;;;;;;55.22;29.23;;;1.60;99.90;;;;;;5015631;28;20034;-85
2022/04/05 01:59:23;;;;;;;57.47;30.10;;;1.70;99.90;;;;;;4997957;28;20036;-86
2022/04/05 02:01:49;;;;;;;55.15;30.40;;;1.70;99.90;;;;;;4998130;28;20096;-86
2022/04/05 02:04:15;;;;;;;53.17;28.73;;;1.70;99.90;;;;;;5014054;28;20124;-86
2022/04/05 02:06:43;;;;;;;56.13;30.02;;;1.60;99.90;;;;;;4997683;28;20101;-85
2022/04/05 02:09:13;;;;;;;56.83;30.25;;;1.70;99.90;;;;;;4997384;28;20030;-85
2022/04/05 02:11:40;;;;;;;54.58;29.30;;;1.70;99.90;;;;;;4997556;28;20100;-85
2022/04/05 02:14:17;;;;;;;51.35;28.73;;;1.70;99.90;;;;;;4982869;28;20026;-86
2022/04/05 02:16:43;;;;;;;63.70;31.73;;;1.70;99.90;;;;;;4997787;28;20030;-85
2022/04/05 02:19:10;;;;;;;58.53;30.90;;;1.70;99.90;;;;;;5030425;28;20042;-85
2022/04/05 02:21:40;;;;;;;56.60;30.38;;;1.70;99.90;;;;;;4996893;28;20076;-85
2022/04/05 02:24:06;;;;;;;56.13;32.35;;;1.60;99.90;;;;;;4997601;28;20030;-85
2022/04/05 02:26:36;;;;;;;56.58;30.35;;;1.70;99.90;;;;;;5030149;28;20073;-84
2022/04/05 02:29:03;;;;;;;54.95;32.05;;;1.70;99.90;;;;;;4997029;28;20025;-84
2022/04/05 02:31:33;;;;;;;66.63;33.22;;;1.70;99.90;;;;;;4997338;28;20530;-84
2022/04/05 02:33:59;;;;;;;59.92;30.38;;;1.70;99.90;;;;;;4997179;28;20141;-84
2022/04/05 02:36:38;;;;;;;62.33;32.83;;;1.60;99.90;;;;;;5030368;28;20033;-84
2022/04/05 02:39:07;;;;;;;64.97;31.75;;;1.50;99.90;;;;;;5046236;28;20390;-84
2022/04/05 02:41:34;;;;;;;62.88;31.80;;;1.50;99.90;;;;;;4997343;28;20029;-84
2022/04/05 02:44:00;;;;;;;68.05;31.52;;;1.50;99.90;;;;;;5029607;28;20124;-83
2022/04/05 02:46:27;;;;;;;65.28;32.08;;;1.50;99.90;;;;;;4996549;28;20033;-84
2022/04/05 02:48:54;;;;;;;61.15;31.25;;;1.50;99.90;;;;;;4996537;28;20026;-83
2022/04/05 02:51:31;;;;;;;61.22;31.73;;;1.60;99.90;;;;;;4996791;28;20029;-84
2022/04/05 02:54:01;;;;;;;64.88;32.78;;;1.60;99.90;;;;;;5029582;28;20026;-83
2022/04/05 02:56:29;;;;;;;65.28;33.85;;;1.70;99.90;;;;;;4996769;28;20034;-84
2022/04/05 02:58:57;;;;;;;54.90;31.33;;;1.60;99.90;;;;;;4996213;28;20033;-83
2022/04/05 03:01:23;;;;;;;59.63;32.33;;;1.70;99.90;;;;;;4996593;28;20114;-85
2022/04/05 03:03:50;;;;;;;60.25;30.98;;;1.60;99.90;;;;;;5029426;28;20374;-84
2022/04/05 03:06:17;;;;;;;61.85;32.58;;;1.60;99.90;;;;;;4996563;28;20033;-84
2022/04/05 03:08:44;;;;;;;55.75;30.35;;;1.50;99.90;;;;;;4996406;28;20069;-85
2022/04/05 03:11:12;;;;;;;61.85;31.73;;;1.50;99.90;;;;;;4996254;28;20018;-84
2022/04/05 03:13:41;;;;;;;63.92;32.28;;;1.50;99.90;;;;;;5014182;28;20030;-84
2022/04/05 03:16:08;;;;;;;54.78;28.88;;;1.50;99.90;;;;;;4996080;28;20107;-83
2022/04/05 03:18:35;;;;;;;61.20;31.92;;;1.50;99.90;;;;;;5004191;28;20117;-84
2022/04/05 03:21:02;;;;;;;58.55;30.00;;;1.50;99.90;;;;;;4996424;28;20105;-84
2022/04/05 03:23:28;;;;;;;57.15;30.10;;;1.50;99.90;;;;;;4993978;28;20064;-84
2022/04/05 03:25:54;;;;;;;54.50;27.67;;;1.60;99.90;;;;;;4995891;28;20030;-84
2022/04/05 03:28:23;;;;;;;61.25;30.20;;;1.60;99.90;;;;;;4995659;28;20511;-84
2022/04/05 03:30:50;;;;;;;67.57;31.63;;;1.70;99.90;;;;;;4995974;28;20029;-84
2022/04/05 03:33:16;;;;;;;49.53;28.23;;;1.70;99.90;;;;;;4996533;28;20036;-84
2022/04/05 03:35:42;;;;;;;53.75;30.25;;;1.70;99.90;;;;;;4996409;28;20065;-84
2022/04/05 03:38:24;;;;;;;65.57;30.92;;;1.70;99.90;;;;;;4995971;28;20413;-84
2022/04/05 03:40:51;;;;;;;60.22;31.15;;;1.70;99.90;;;;;;5012017;28;20460;-84
2022/04/05 03:43:17;;;;;;;61.78;31.10;;;1.70;99.90;;;;;;4996098;28;20061;-84
2022/04/05 03:45:48;;;;;;;59.40;30.67;;;1.70;99.90;;;;;;4995671;28;20473;-84
2022/04/05 03:48:15;;;;;;;60.55;30.95;;;1.70;99.90;;;;;;4995470;28;20091;-84
2022/04/05 03:50:42;;;;;;;64.85;31.58;;;1.70;99.90;;;;;;4996043;28;20022;-84
2022/04/05 03:53:09;;;;;;;59.65;31.23;;;1.70;99.90;;;;;;5045420;28;20033;-84
2022/04/05 03:55:35;;;;;;;59.35;30.50;;;1.70;99.90;;;;;;4995944;28;20095;-83
2022/04/05 03:58:05;;;;;;;59.25;31.60;;;1.70;99.90;;;;;;4995445;28;20037;-84
2022/04/05 04:00:31;;;;;;;69.20;31.50;;;1.70;99.90;;;;;;4995398;28;20030;-84
2022/04/05 04:03:10;;;;;;;57.95;30.73;;;1.80;99.90;;;;;;4995692;28;20037;-84
2022/04/05 04:05:36;;;;;;;69.28;33.15;;;1.70;99.90;;;;;;4995664;28;20048;-84
2022/04/05 04:08:03;;;;;;;64.55;31.77;;;1.80;99.90;;;;;;5028391;28;20053;-84
2022/04/05 04:10:31;;;;;;;62.10;30.92;;;1.80;99.90;;;;;;5028056;28;20470;-84
2022/04/05 04:12:59;;;;;;;62.78;32.35;;;1.80;99.90;;;;;;5011874;28;20080;-84
2022/04/05 04:15:29;;;;;;;61.00;31.60;;;1.80;99.90;;;;;;4995515;28;20185;-84
2022/04/05 04:17:56;;;;;;;64.43;32.83;;;1.80;99.90;;;;;;4994885;28;20040;-84
2022/04/05 04:20:22;;;;;;;66.53;32.13;;;1.80;99.90;;;;;;5028016;28;20030;-84
2022/04/05 04:22:49;;;;;;;66.53;32.10;;;1.80;99.90;;;;;;4995536;28;20037;-84
2022/04/05 04:25:16;;;;;;;61.30;29.95;;;1.90;99.90;;;;;;5012094;28;20034;-84
2022/04/05 04:27:57;;;;;;;59.13;29.67;;;1.90;99.90;;;;;;4995292;28;20033;-84
2022/04/05 04:30:37;;;;;;;66.80;31.60;;;1.90;99.90;;;;;;4994528;28;20026;-83
2022/04/05 04:33:04;;;;;;;67.10;30.52;;;1.90;99.90;;;;;;4995594;28;20038;-84
2022/04/05 04:35:30;;;;;;;62.78;29.73;;;2.00;99.90;;;;;;5011776;28;20500;-83
2022/04/05 04:37:57;;;;;;;56.65;28.42;;;2.00;99.90;;;;;;4995324;28;20033;-84
2022/04/05 04:40:23;;;;;;;58.85;29.52;;;2.00;99.90;;;;;;4995669;28;20034;-84
2022/04/05 04:42:49;;;;;;;64.75;30.27;;;2.00;99.90;;;;;;4995597;28;20034;-84
2022/04/05 04:45:15;;;;;;;63.60;31.77;;;2.00;99.90;;;;;;5012804;28;20412;-84
2022/04/05 04:47:40;;;;;;;61.28;29.88;;;2.00;99.90;;;;;;4995043;28;20029;-84
2022/04/05 04:50:08;;;;;;;59.92;28.40;;;2.00;99.90;;;;;;4995372;28;20033;-84
2022/04/05 04:52:34;;;;;;;56.80;29.30;;;2.00;99.90;;;;;;4995465;28;20698;-85
2022/04/05 04:55:03;;;;;;;59.45;30.67;;;2.10;99.90;;;;;;4995279;28;20107;-84
2022/04/05 04:57:28;;;;;;;62.92;31.35;;;2.00;99.90;;;;;;4994890;28;20057;-83
2022/04/05 04:59:54;;;;;;;74.55;35.50;;;2.10;99.90;;;;;;5012510;28;20026;-82
2022/04/05 05:02:23;;;;;;;65.97;32.08;;;2.10;99.90;;;;;;4995164;28;20040;-83
2022/04/05 05:04:52;;;;;;;61.67;31.53;;;2.10;99.90;;;;;;5027899;28;20621;-82
2022/04/05 05:07:18;;;;;;;64.88;31.92;;;2.10;99.90;;;;;;4994587;28;20432;-82
2022/04/05 05:09:44;;;;;;;74.45;33.00;;;2.10;99.90;;;;;;5011336;28;20022;-82
2022/04/05 05:12:10;;;;;;;66.50;32.22;;;2.10;99.90;;;;;;4995368;28;20034;-82
2022/04/05 05:14:37;;;;;;;72.75;34.55;;;2.10;99.90;;;;;;4978977;28;20026;-82
2022/04/05 05:17:04;;;;;;;67.18;32.05;;;2.10;99.90;;;;;;5027757;28;20034;-82
2022/04/05 05:19:29;;;;;;;66.45;32.25;;;2.10;99.90;;;;;;4994663;28;20038;-82
2022/04/05 05:21:55;;;;;;;70.82;33.28;;;2.10;99.90;;;;;;4994595;28;20061;-82
2022/04/05 05:24:21;;;;;;;65.22;32.42;;;2.10;99.90;;;;;;4994662;28;20389;-82
2022/04/05 05:26:47;;;;;;;68.72;32.97;;;2.10;99.90;;;;;;5027470;28;20030;-83
2022/04/05 05:29:13;;;;;;;70.45;34.97;;;2.10;99.90;;;;;;5011296;28;20529;-83
2022/04/05 05:31:39;;;;;;;68.80;32.40;;;2.10;99.90;;;;;;4994530;28;20022;-83
2022/04/05 05:34:05;;;;;;;67.50;33.20;;;2.10;99.90;;;;;;4994736;28;20026;-82
2022/04/05 05:36:30;;;;;;;64.40;32.25;;;2.10;99.90;;;;;;4994194;28;20038;-82
2022/04/05 05:38:56;;;;;;;77.28;34.80;;;2.10;99.90;;;;;;4994100;28;20034;-82
2022/04/05 05:41:22;;;;;;;76.28;35.20;;;2.10;99.90;;;;;;5012658;28;20037;-82
2022/04/05 05:43:48;;;;;;;65.05;32.40;;;2.10;99.90;;;;;;4998005;28;20037;-82
2022/04/05 05:46:14;;;;;;;70.28;34.63;;;2.20;99.90;;;;;;4998398;28;20494;-82
2022/04/05 05:48:40;;;;;;;74.43;36.25;;;2.10;99.90;;;;;;5047307;28;20037;-82
2022/04/05 05:51:07;;;;;;;71.05;34.30;;;2.10;99.90;;;;;;4998336;28;20153;-84
2022/04/05 05:53:33;;;;;;;72.57;33.95;;;2.10;99.90;;;;;;4998348;28;20125;-82
2022/04/05 05:55:59;;;;;;;71.07;34.55;;;2.10;99.90;;;;;;5015731;28;20030;-82
2022/04/05 05:58:30;;;;;;;66.90;31.10;;;2.10;99.90;;;;;;4997870;28;20036;-83
2022/04/05 06:00:56;;;;;;;64.82;30.48;;;2.10;99.90;;;;;;5014312;28;20041;-82
2022/04/05 06:03:22;;;;;;;63.75;31.77;;;2.20;99.90;;;;;;4997652;28;20046;-82
2022/04/05 06:05:47;;;;;;;64.88;31.85;;;2.20;99.90;;;;;;4997636;28;20034;-83
2022/04/05 06:08:14;;;;;;;64.72;31.98;;;2.20;99.90;;;;;;4997846;28;20030;-82
2022/04/05 06:10:40;;;;;;;65.95;31.08;;;2.20;99.90;;;;;;4998019;28;20496;-82
2022/04/05 06:13:05;;;;;;;61.63;30.50;;;2.20;99.90;;;;;;4998000;28;20030;-82
2022/04/05 06:15:32;;;;;;;66.50;30.38;;;2.20;99.90;;;;;;4997928;28;20038;-82
2022/04/05 06:17:58;;;;;;;63.28;32.13;;;2.20;99.90;;;;;;4997566;28;20026;-84
2022/04/05 06:20:25;;;;;;;67.07;33.50;;;2.20;99.90;;;;;;5014821;28;20038;-82
2022/04/05 06:22:52;;;;;;;66.20;31.65;;;2.30;99.90;;;;;;4997304;28;20026;-83
2022/04/05 06:25:28;;;;;;;63.88;30.75;;;2.30;99.90;;;;;;5030206;28;20026;-82
2022/04/05 06:28:01;;;;;;;64.80;30.35;;;2.20;99.90;;;;;;4997214;28;20030;-81
2022/04/05 06:30:27;;;;;;;70.13;30.30;;;2.20;99.90;;;;;;4997245;28;20040;-82
2022/04/05 06:33:08;;;;;;;69.78;33.15;;;2.30;99.90;;;;;;4997388;28;20030;-82
2022/04/05 06:35:34;;;;;;;74.43;33.73;;;2.30;99.90;;;;;;5029971;28;20037;-82
2022/04/05 06:38:00;;;;;;;72.70;33.58;;;2.30;99.90;;;;;;4997018;28;20038;-82
2022/04/05 06:40:26;;;;;;;60.03;31.80;;;2.30;99.90;;;;;;4997020;28;20073;-82
2022/04/05 06:42:52;;;;;;;70.80;32.70;;;2.30;99.90;;;;;;5030097;28;20041;-81
2022/04/05 06:45:19;;;;;;;59.88;28.92;;;2.30;99.90;;;;;;5013414;28;20041;-82
2022/04/05 06:47:47;;;;;;;63.33;31.80;;;2.20;99.90;;;;;;5013149;28;20048;-82
2022/04/05 06:50:14;;;;;;;69.40;32.13;;;2.20;99.90;;;;;;4996751;28;20388;-81
2022/04/05 06:52:43;;;;;;;72.22;33.17;;;2.20;99.90;;;;;;4996439;28;20057;-82
2022/04/05 06:55:10;;;;;;;59.88;29.27;;;2.30;99.90;;;;;;4996098;28;20088;-82
2022/04/05 06:57:36;;;;;;;58.05;27.73;;;2.30;99.90;;;;;;4996654;28;20509;-83
2022/04/05 07:00:08;;;;;;;57.80;26.48;;;2.30;99.90;;;;;;4996205;28;20034;-82
2022/04/05 07:02:33;;;;;;;60.03;27.65;;;2.30;99.90;;;;;;5012294;28;20038;-83
2022/04/05 07:04:59;;;;;;;57.60;28.02;;;2.30;99.90;;;;;;4996465;28;20489;-82
2022/04/05 07:07:26;;;;;;;66.68;30.05;;;2.40;99.90;;;;;;4996642;28;20088;-81
2022/04/05 07:09:52;;;;;;;62.28;30.92;;;2.40;99.90;;;;;;5012817;28;20057;-82
2022/04/05 07:12:18;;;;;;;60.50;31.02;;;2.40;99.90;;;;;;4996657;28;20026;-82
2022/04/05 07:14:43;;;;;;;62.28;30.67;;;2.50;99.90;;;;;;4996608;28;20122;-81
2022/04/05 07:17:09;;;;;;;67.68;30.35;;;2.50;99.90;;;;;;4996656;28;20037;-82
2022/04/05 07:19:35;;;;;;;65.97;28.30;;;2.50;99.90;;;;;;4996663;28;20393;-82
2022/04/05 07:22:02;;;;;;;53.75;28.50;;;2.50;99.90;;;;;;4996310;28;20053;-83
2022/04/05 07:24:28;;;;;;;61.55;27.48;;;2.40;99.90;;;;;;4996073;28;20418;-82
2022/04/05 07:26:54;;;;;;;55.15;28.60;;;2.50;99.90;;;;;;4995784;28;20038;-82
2022/04/05 07:29:20;;;;;;;52.78;26.42;;;2.50;99.90;;;;;;4995985;28;20034;-82
2022/04/05 07:31:46;;;;;;;55.83;27.75;;;2.50;99.90;;;;;;4996228;28;20113;-82
2022/04/05 07:34:12;;;;;;;55.05;27.02;;;2.60;99.90;;;;;;4996346;28;20109;-82
2022/04/05 07:36:37;;;;;;;58.38;28.58;;;2.60;99.90;;;;;;4996261;28;20124;-81
2022/04/05 07:39:03;;;;;;;52.22;26.23;;;2.60;99.90;;;;;;4995538;28;20105;-82
2022/04/05 07:41:29;;;;;;;58.17;27.00;;;2.60;99.90;;;;;;4995918;28;20117;-82
2022/04/05 07:43:55;;;;;;;49.30;26.33;;;2.60;99.90;;;;;;4995955;28;20026;-82
2022/04/05 07:46:21;;;;;;;46.08;24.88;;;2.60;99.90;;;;;;4995767;28;20060;-83
2022/04/05 07:48:47;;;;;;;49.75;25.88;;;2.70;99.90;;;;;;4995766;28;20033;-82
2022/04/05 07:51:14;;;;;;;51.25;26.25;;;2.60;99.90;;;;;;4995563;28;20103;-81
2022/04/05 07:53:40;;;;;;;55.78;25.75;;;2.60;99.90;;;;;;5028410;28;20040;-82
2022/04/05 07:56:05;;;;;;;49.10;25.08;;;2.70;99.90;;;;;;5028299;28;20117;-82
2022/04/05 07:58:31;;;;;;;55.17;24.63;;;2.70;99.90;;;;;;4995365;28;20033;-82
2022/04/05 08:00:57;;;;;;;48.42;24.58;;;2.60;99.90;;;;;;4995666;28;20037;-82
2022/04/05 08:03:23;;;;;;;55.08;27.70;;;2.70;99.90;;;;;;4995158;28;20477;-82
2022/04/05 08:05:49;;;;;;;47.45;26.30;;;2.80;99.90;;;;;;5011895;28;20038;-82
2022/04/05 08:08:15;;;;;;;48.22;23.38;;;2.80;99.90;;;;;;4995291;28;20026;-81
2022/04/05 08:10:41;;;;;;;98.85;45.83;;;2.80;99.90;;;;;;4994937;28;20117;-83
2022/04/05 08:13:07;;;;;;;55.78;26.42;;;2.90;99.90;;;;;;5012591;28;20030;-82
2022/04/05 08:15:34;;;;;;;53.92;27.25;;;2.90;99.90;;;;;;4994689;28;20145;-82
2022/04/05 08:17:59;;;;;;;50.75;27.55;;;2.90;99.90;;;;;;4994949;28;20041;-83
2022/04/05 08:20:25;;;;;;;63.17;29.52;;;2.90;99.90;;;;;;4994926;28;20397;-82
2022/04/05 08:22:51;;;;;;;60.30;28.00;;;2.90;99.90;;;;;;4995778;28;20029;-82
2022/04/05 08:25:18;;;;;;;55.92;28.35;;;2.90;99.90;;;;;;4995664;28;20030;-82
2022/04/05 08:27:45;;;;;;;51.90;26.65;;;2.90;99.90;;;;;;4995235;28;20125;-81
2022/04/05 08:30:15;;;;;;;56.00;28.17;;;2.90;99.90;;;;;;4995159;28;20037;-80
2022/04/05 08:32:42;;;;;;;50.40;26.50;;;2.90;99.90;;;;;;5011787;28;20034;-80
2022/04/05 08:35:14;;;;;;;61.20;28.02;;;3.00;99.90;;;;;;5012945;28;20037;-81
2022/04/05 08:37:40;;;;;;;;;;;3.00;99.90;;;;;;4995732;28;20061;-83
2022/04/05 08:40:07;;;;;;;54.05;27.40;;;3.00;99.90;;;;;;4995209;28;19915;-83
2022/04/05 08:42:35;;;;;;;62.97;31.65;;;3.00;99.90;;;;;;4994885;28;20026;-83
2022/04/05 08:45:08;;;;;;;54.55;27.65;;;3.00;99.90;;;;;;4994943;28;20034;-83
2022/04/05 08:51:21;;;;;;;52.35;26.23;;;3.00;99.90;;;;;;4995935;28;20042;-83
2022/04/05 08:53:48;;;;;;;55.38;28.50;;;3.00;99.90;;;;;;4994767;28;20022;-82
2022/04/05 08:56:15;;;;;;;54.92;29.52;;;3.10;99.90;;;;;;5027518;28;20042;-83
2022/04/05 08:58:41;;;;;;;53.10;27.67;;;3.10;99.90;;;;;;5010372;28;20443;-81
2022/04/05 09:01:06;;;;;;;51.65;26.60;;;3.10;99.90;;;;;;4994593;28;20129;-82
2022/04/05 09:03:34;;;;;;;60.45;29.35;;;3.10;99.90;;;;;;5027692;28;20241;-81
2022/04/05 09:06:23;;;;;;;58.80;28.70;;;3.00;99.90;;;;;;4995191;28;20613;-80
2022/04/05 09:08:49;;;;;;;53.92;29.85;;;3.10;99.90;;;;;;5012508;28;20113;-80
2022/04/05 09:11:14;;;;;;;63.40;31.55;;;3.10;99.90;;;;;;4995314;28;20443;-80
2022/04/05 09:13:55;;;;;;;58.45;29.75;;;3.10;99.90;;;;;;4995084;28;20035;-81
2022/04/05 09:16:28;;;;;;;70.80;34.30;;;3.10;99.90;;;;;;4995031;28;20503;-80
2022/04/05 09:18:54;;;;;;;58.53;30.75;;;3.10;99.90;;;;;;4998378;28;20042;-80
2022/04/05 09:21:19;;;;;;;56.28;29.15;;;3.10;99.90;;;;;;4998742;28;20045;-80
2022/04/05 09:23:45;;;;;;;56.45;29.48;;;3.10;99.90;;;;;;4998642;28;20173;-81
2022/04/05 09:26:17;;;;;;;60.15;31.27;;;3.10;99.90;;;;;;4998411;28;20043;-80
2022/04/05 09:28:43;;;;;;;;;;;3.10;99.90;;;;;;4998352;28;20099;-80
2022/04/05 09:31:11;;;;;;;61.60;31.67;;;3.20;99.90;;;;;;5014497;28;20009;-81
2022/04/05 09:33:39;;;;;;;64.70;31.35;;;3.10;99.90;;;;;;4998093;28;20389;-80
2022/04/05 09:36:32;;;;;;;56.08;29.23;;;3.20;99.90;;;;;;4998575;28;20172;-81
2022/04/05 09:39:10;;;;;;;56.42;31.25;;;3.10;99.90;;;;;;5031183;28;20065;-81
2022/04/05 09:41:35;;;;;;;67.15;33.58;;;3.20;99.90;;;;;;4997691;28;20049;-81
2022/04/05 09:44:02;;;;;;;68.38;32.08;;;3.20;99.90;;;;;;4998340;28;20089;-80
2022/04/05 09:46:30;;;;;;;62.75;31.83;;;3.20;99.90;;;;;;5031115;28;20030;-81
2022/04/05 09:49:12;;;;;;;64.18;30.58;;;3.20;99.90;;;;;;4997686;28;20033;-81
2022/04/05 09:51:39;;;;;;;61.50;31.52;;;3.20;99.90;;;;;;4997818;28;20459;-80
2022/04/05 09:54:05;;;;;;;59.72;32.78;;;3.20;99.90;;;;;;4998132;28;20077;-80
2022/04/05 09:56:38;;;;;;;66.20;33.17;;;3.20;99.90;;;;;;4997833;28;20120;-80
2022/04/05 09:59:18;;;;;;;62.63;30.98;;;3.20;99.90;;;;;;5030885;28;20038;-80
2022/04/05 10:01:46;;;;;;;65.28;33.00;;;3.20;99.90;;;;;;4997952;28;20054;-80
2022/04/05 10:04:14;;;;;;;61.05;33.40;;;3.30;99.90;;;;;;5014068;28;20096;-80
2022/04/05 10:06:46;;;;;;;64.68;34.20;;;3.30;99.90;;;;;;5030478;28;20119;-80
2022/04/05 10:09:16;;;;;;;70.85;34.70;;;3.30;99.90;;;;;;4998252;28;20030;-81
2022/04/05 10:11:43;;;;;;;62.38;34.45;;;3.40;99.90;;;;;;4997809;28;20034;-81
2022/04/05 10:14:12;;;;;;;61.45;33.22;;;3.40;99.90;;;;;;5030597;28;20043;-81
2022/04/05 10:16:39;;;;;;;67.20;34.22;;;3.40;99.90;;;;;;4997640;28;20034;-80
2022/04/05 10:19:08;;;;;;;65.10;33.83;;;3.40;99.90;;;;;;4996613;28;20042;-82
2022/04/05 10:21:36;;;;;;;65.55;33.35;;;3.50;99.90;;;;;;5030015;28;20036;-81
2022/04/05 10:24:04;;;;;;;63.50;32.53;;;3.50;99.90;;;;;;4997280;28;20030;-81
2022/04/05 10:26:35;;;;;;;71.57;34.33;;;3.50;99.90;;;;;;5013474;28;20076;-81
2022/04/05 10:29:32;;;;;;;67.53;37.10;;;3.50;99.90;;;;;;4996481;28;20026;-81
2022/04/05 10:32:33;;;;;;;69.32;34.55;;;3.50;99.90;;;;;;4981052;28;20034;-80
2022/04/05 10:35:08;;;;;;;66.47;33.78;;;3.50;99.90;;;;;;4975888;28;20497;-83
2022/04/05 10:37:36;;;;;;;67.30;33.17;;;3.50;99.90;;;;;;5014467;28;20038;-83
2022/04/05 10:40:02;;;;;;;70.80;35.00;;;3.50;99.90;;;;;;5013364;28;20030;-82
2022/04/05 10:42:41;;;;;;;71.55;34.80;;;3.60;99.90;;;;;;4997525;28;20092;-82
2022/04/05 10:45:29;;;;;;;66.15;35.40;;;3.60;99.90;;;;;;4996648;28;20041;-83
2022/04/05 10:48:18;;;;;;;74.13;35.75;;;3.60;99.90;;;;;;4996895;28;20022;-82
2022/04/05 10:51:00;;;;;;;70.75;35.17;;;3.60;99.90;;;;;;4997139;28;20029;-82
2022/04/05 10:53:33;;;;;;;64.47;32.72;;;3.60;99.90;;;;;;5029657;28;20128;-83
2022/04/05 10:56:08;;;;;;;67.38;34.00;;;3.70;99.90;;;;;;5029856;28;20025;-82
2022/04/05 10:58:46;;;;;;;64.05;33.90;;;3.70;99.90;;;;;;5029767;28;20489;-83
2022/04/05 11:01:19;;;;;;;70.63;35.22;;;3.80;99.90;;;;;;5028983;28;20556;-82
2022/04/05 11:04:17;;;;;;;70.40;36.25;;;3.80;99.90;;;;;;5012618;28;20048;-82
2022/04/05 11:07:06;;;;;;;68.57;36.40;;;3.90;99.90;;;;;;5029488;28;20041;-83
2022/04/05 11:09:57;;;;;;;66.40;36.65;;;3.80;99.90;;;;;;5029496;28;20026;-83
2022/04/05 11:12:30;;;;;;;62.97;32.17;;;3.90;99.90;;;;;;4996865;28;20560;-82
2022/04/05 11:15:05;;;;;;;57.83;33.20;;;4.00;99.90;;;;;;4996710;28;20030;-83
2022/04/05 11:17:32;;;;;;;58.92;33.17;;;4.00;99.90;;;;;;4996337;28;20389;-83
2022/04/05 11:20:00;;;;;;;61.70;33.47;;;4.00;99.90;;;;;;4996429;28;20125;-82
2022/04/05 11:22:31;;;;;;;59.22;33.38;;;4.00;99.90;;;;;;4996411;28;20393;-83
2022/04/05 11:25:07;;;;;;;63.08;33.72;;;4.10;99.90;;;;;;4996508;28;20056;-82
2022/04/05 11:27:44;;;;;;;56.97;32.70;;;4.10;99.90;;;;;;5028942;28;20371;-82
2022/04/05 11:30:28;;;;;;;56.60;31.23;;;4.10;99.90;;;;;;5044939;28;20053;-82
2022/04/05 11:33:09;;;;;;;56.38;30.15;;;4.20;99.90;;;;;;5013656;28;20485;-82
2022/04/05 11:35:39;;;;;;;61.08;33.08;;;4.20;99.90;;;;;;4996093;28;20493;-82
2022/04/05 11:38:17;;;;;;;51.73;30.83;;;4.10;99.90;;;;;;5012406;28;20041;-82
2022/04/05 11:40:51;;;;;;;61.58;32.53;;;4.20;99.90;;;;;;5028381;28;20260;-82
2022/04/05 11:43:18;;;;;;;62.30;32.40;;;4.20;99.90;;;;;;5044863;28;20551;-83
2022/04/05 11:45:48;;;;;;;63.35;32.95;;;4.20;99.90;;;;;;5013097;28;20469;-82
2022/04/05 11:48:18;;;;;;;62.40;32.13;;;4.30;99.90;;;;;;4995412;28;20676;-82
2022/04/05 11:50:44;;;;;;;59.53;32.92;;;4.30;99.90;;;;;;4995771;28;20041;-82
2022/04/05 11:53:29;;;;;;;62.38;34.10;;;4.20;99.90;;;;;;5012619;28;20037;-82
2022/04/05 11:56:21;;;;;;;62.80;31.85;;;4.20;99.90;;;;;;4996170;28;20101;-83
2022/04/05 11:58:56;;;;;;;65.75;34.20;;;4.20;99.90;;;;;;5011817;28;20034;-83
2022/04/05 12:01:35;;;;;;;61.33;32.72;;;4.30;99.90;;;;;;4995816;28;20033;-82
2022/04/05 12:04:04;;;;;;;55.88;33.08;;;4.30;99.90;;;;;;4995509;28;20095;-83
2022/04/05 12:06:32;;;;;;;63.58;35.08;;;4.30;99.90;;;;;;4995248;28;20048;-82
2022/04/05 12:09:03;;;;;;;58.97;33.80;;;4.30;99.90;;;;;;4995458;28;20125;-83
2022/04/05 12:11:31;;;;;;;74.85;37.38;;;4.40;99.90;;;;;;5012085;28;20481;-82
2022/04/05 12:13:59;;;;;;;62.72;34.30;;;4.40;99.90;;;;;;4995465;28;20109;-82
2022/04/05 12:16:28;;;;;;;59.58;34.25;;;4.40;99.90;;;;;;5011996;28;20079;-83
2022/04/05 12:18:54;;;;;;;61.42;34.05;;;4.40;99.90;;;;;;4995432;28;20034;-83
2022/04/05 12:21:24;;;;;;;63.50;34.85;;;4.40;99.90;;;;;;5028363;28;20046;-81
2022/04/05 12:23:51;;;;;;;69.32;36.30;;;4.50;99.90;;;;;;4995190;28;20048;-83
2022/04/05 12:26:27;;;;;;;74.30;41.75;;;4.50;99.90;;;;;;4995275;28;20030;-83
2022/04/05 12:28:59;;;;;;;93.63;45.60;;;4.50;99.90;;;;;;4994988;28;20385;-83
2022/04/05 12:31:28;;;;;;;;;;;4.50;99.90;;;;;;5012423;28;20034;-82
2022/04/05 12:34:13;;;;;;;64.68;33.60;;;4.50;99.90;;;;;;4995068;28;19914;-82
2022/04/05 12:36:52;;;;;;;71.60;37.47;;;4.50;99.90;;;;;;5011837;28;20026;-83
2022/04/05 12:39:26;;;;;;;64.93;34.63;;;4.50;99.90;;;;;;4995221;28;20107;-82
2022/04/05 12:41:59;;;;;;;66.72;36.42;;;4.50;99.90;;;;;;5011410;28;20482;-83
2022/04/05 12:44:30;;;;;;;73.78;38.17;;;4.50;99.90;;;;;;4995470;28;20118;-82
2022/04/05 12:47:00;;;;;;;;;;;4.50;99.90;;;;;;5011755;28;20065;-83
2022/04/05 12:49:32;;;;;;;72.18;37.80;;;4.60;99.90;;;;;;4995301;28;20272;-83
2022/04/05 12:52:15;;;;;;;72.13;37.30;;;4.70;99.90;;;;;;5013847;28;20462;-82